Bonaventure, Canada
Current Conditions -  °F | °C
As of 2:00 PM on Thursday 30 Oct 2014 (Local Time) from CZBF Reporting Station
Broken Clouds Broken Clouds  
Wind Chill: 44°   Ceiling: 22000
Heat Index: 48°   Visibility: 15mi
Dew Point: 32°   Wind: 10mph
Humidity: 54%   Direction: 290°WNW
Pressure: 29.76"   Gusts: 18mph
Location:  48.05°N, 65.47°W
Report Text: CZBF 301800Z 29009G16KT 260V320 15SM SCT025 BKN220 09/M00 A2976 RMK SC3CI2 SLP078
Loading
Personal Weather Stations






























Interactive Weather Map
Tropical Storm Tracking
New forecast layout! Learn more

10-Day Weather Forecast

Advertisements
Track Severe Weather on mobile